Beersheba, Israel
Current Conditions -  °F | °C
As of 10:50 AM on Monday 20 Oct 2014 (Local Time) from LLBG Reporting Station
Scattered Clouds Scattered Clouds  
Wind Chill: 24°   Ceiling: Unl
Heat Index: 24°   Visibility: 6mi
Dew Point: 16°   Wind: 3mph
Humidity: 61%   Direction: NA
Pressure: 29.91"   Gusts: NA
Location:  31.25°N, 34.8°E
Report Text: LLBG 200750Z VRB03KT 9999 SCT045 24/16 Q1013 BECMG 26008KT
Loading
Personal Weather Stations






























Interactive Weather Map
Tropical Storm Tracking
New forecast layout! Learn more

10-Day Weather Forecast

Advertisements
Track Severe Weather on mobile